Time;durP1;ratioP1;P1;durP2;ratioP2;P2;SDS_P1;SDS_P2;PMS_P1;PMS_P2;Temp;Humidity;BMP_temperature;BMP_pressure;BME280_temperature;BME280_humidity;BME280_pressure;Samples;Min_cycle;Max_cycle;Signal;HPM_P1;HPM_P2
2022/01/14 00:03:30;;;;;;;5.53;3.00;;;21.70;68.00;;;;;;7778637;28;20657;-53
2022/01/14 00:07:17;;;;;;;7.60;3.75;;;21.60;67.90;;;;;;7778599;28;20179;-55
2022/01/14 00:11:03;;;;;;;3.80;2.47;;;21.60;68.00;;;;;;7777512;28;20272;-52
2022/01/14 00:15:23;;;;;;;5.25;2.60;;;21.60;68.70;;;;;;7778360;28;20170;-56
2022/01/14 00:19:03;;;;;;;6.32;2.83;;;21.50;67.70;;;;;;7777814;28;20567;-55
2022/01/14 00:22:49;;;;;;;5.25;3.60;;;21.50;67.50;;;;;;7778325;28;20187;-54
2022/01/14 00:34:44;;;;;;;6.75;3.30;;;21.40;66.70;;;;;;7778059;28;20262;-55
2022/01/14 00:38:29;;;;;;;4.68;3.40;;;21.40;66.90;;;;;;7777641;28;20233;-53
2022/01/14 00:42:15;;;;;;;5.25;3.03;;;21.30;66.50;;;;;;7777728;28;20564;-54
2022/01/14 00:46:00;;;;;;;4.20;3.20;;;21.30;66.20;;;;;;7777710;28;20545;-54
2022/01/14 00:49:46;;;;;;;6.78;3.22;;;21.30;66.20;;;;;;7777016;28;20218;-52
2022/01/14 00:53:31;;;;;;;4.53;3.35;;;21.20;66.10;;;;;;7777403;28;20238;-57
2022/01/14 00:57:28;;;;;;;4.45;2.90;;;21.20;66.10;;;;;;7777334;28;20183;-55
2022/01/14 01:01:14;;;;;;;5.72;3.28;;;21.20;66.00;;;;;;7777107;28;20199;-54
2022/01/14 01:04:59;;;;;;;5.47;3.08;;;21.20;65.90;;;;;;7777079;28;20171;-55
2022/01/14 01:08:47;;;;;;;4.25;3.40;;;21.20;66.10;;;;;;7776481;28;20203;-57
2022/01/14 01:12:47;;;;;;;5.80;3.50;;;21.10;65.70;;;;;;7776939;28;20179;-55
2022/01/14 01:16:33;;;;;;;5.35;3.15;;;21.10;65.60;;;;;;7776977;28;20183;-58
2022/01/14 01:20:18;;;;;;;5.57;3.22;;;21.10;65.50;;;;;;7775832;28;20209;-52
2022/01/14 01:24:04;;;;;;;5.18;3.38;;;21.00;65.50;;;;;;7776672;28;20604;-56
2022/01/14 01:27:53;;;;;;;4.20;3.40;;;21.00;65.50;;;;;;7776344;28;20206;-56
2022/01/14 01:31:42;;;;;;;5.38;3.55;;;21.00;65.30;;;;;;7776570;28;20199;-57
2022/01/14 01:35:29;;;;;;;3.80;3.40;;;21.00;65.20;;;;;;7776597;28;20179;-57
2022/01/14 01:39:17;;;;;;;6.57;3.65;;;21.00;65.30;;;;;;7776175;28;20672;-56
2022/01/14 01:43:06;;;;;;;5.82;3.40;;;21.00;65.30;;;;;;7776436;28;20710;-55
2022/01/14 01:46:53;;;;;;;4.07;3.42;;;20.90;65.20;;;;;;7776625;28;20222;-57
2022/01/14 01:50:39;;;;;;;5.20;3.40;;;20.90;65.20;;;;;;7775965;28;20215;-57
2022/01/14 01:54:26;;;;;;;4.40;3.60;;;20.90;65.30;;;;;;7776465;28;20186;-57
2022/01/14 01:58:12;;;;;;;5.82;3.40;;;20.80;65.10;;;;;;7776139;28;20183;-58
2022/01/14 02:01:59;;;;;;;6.30;3.35;;;20.80;65.10;;;;;;7776428;28;20226;-57
2022/01/14 02:05:45;;;;;;;5.18;3.50;;;20.80;65.10;;;;;;7776396;28;20179;-52
2022/01/14 02:09:31;;;;;;;5.13;3.60;;;20.80;65.10;;;;;;7775745;28;20918;-54
2022/01/14 02:13:17;;;;;;;6.88;3.83;;;20.80;65.20;;;;;;7776413;28;20645;-56
2022/01/14 02:25:03;;;;;;;4.80;3.28;;;20.70;65.10;;;;;;7776474;28;20179;-57
2022/01/14 02:28:50;;;;;;;7.13;4.00;;;20.70;65.10;;;;;;7776039;28;20221;-53
2022/01/14 02:32:36;;;;;;;5.80;3.78;;;20.70;65.00;;;;;;7775932;28;20175;-57
2022/01/14 02:36:22;;;;;;;4.68;3.58;;;20.60;64.80;;;;;;7779082;28;20175;-58
2022/01/14 02:40:10;;;;;;;6.38;3.65;;;20.60;64.90;;;;;;7780938;28;20210;-55
2022/01/14 02:44:03;;;;;;;5.13;4.00;;;20.60;64.90;;;;;;7780918;28;20238;-56
2022/01/14 02:47:48;;;;;;;5.80;3.83;;;20.60;65.00;;;;;;7780653;28;20604;-56
2022/01/14 02:51:34;;;;;;;5.60;4.10;;;20.60;64.80;;;;;;7780783;28;20342;-57
2022/01/14 02:55:23;;;;;;;5.55;3.85;;;20.60;64.80;;;;;;7780712;28;20176;-54
2022/01/14 02:59:10;;;;;;;5.88;4.53;;;20.60;64.80;;;;;;7780317;28;20226;-53
2022/01/14 03:02:58;;;;;;;6.57;4.53;;;20.60;64.60;;;;;;7780370;28;20270;-57
2022/01/14 03:06:44;;;;;;;8.52;4.90;;;20.60;64.70;;;;;;7780216;28;20179;-54
2022/01/14 03:10:30;;;;;;;6.03;4.80;;;20.60;64.70;;;;;;7779819;28;20708;-55
2022/01/14 03:14:23;;;;;;;8.07;4.55;;;20.50;64.50;;;;;;7780187;28;20653;-55
2022/01/14 03:18:08;;;;;;;6.72;4.72;;;20.50;64.50;;;;;;7779807;28;20191;-57
2022/01/14 03:22:06;;;;;;;7.78;4.97;;;20.50;64.70;;;;;;7779903;28;20203;-57
2022/01/14 03:25:52;;;;;;;8.60;5.13;;;20.50;64.70;;;;;;7779959;28;20845;-52
2022/01/14 03:29:38;;;;;;;6.95;5.07;;;20.40;64.70;;;;;;7779450;28;20554;-56
2022/01/14 03:33:23;;;;;;;9.57;5.60;;;20.50;65.20;;;;;;7779852;28;20179;-54
2022/01/14 03:37:09;;;;;;;8.30;5.68;;;20.40;64.60;;;;;;7780154;28;20174;-59
2022/01/14 03:40:54;;;;;;;8.63;5.65;;;20.50;64.60;;;;;;7779097;28;20211;-59
2022/01/14 03:44:40;;;;;;;7.82;5.40;;;20.40;64.50;;;;;;7779303;28;20190;-58
2022/01/14 03:48:25;;;;;;;10.30;6.20;;;20.40;64.40;;;;;;7777819;28;20269;-58
2022/01/14 03:52:11;;;;;;;9.10;5.55;;;20.40;64.40;;;;;;7779025;28;20206;-59
2022/01/14 03:55:56;;;;;;;8.68;5.57;;;20.40;64.50;;;;;;7779003;28;20171;-59
2022/01/14 03:59:42;;;;;;;7.75;5.97;;;20.40;64.50;;;;;;7778523;28;20295;-59
2022/01/14 04:03:27;;;;;;;9.35;6.32;;;20.40;64.70;;;;;;7778737;28;20406;-59
2022/01/14 04:07:13;;;;;;;7.47;5.88;;;20.40;64.50;;;;;;7778962;28;20942;-56
2022/01/14 04:11:00;;;;;;;6.95;5.47;;;20.40;64.60;;;;;;7778152;28;20219;-57
2022/01/14 04:18:32;;;;;;;7.75;6.03;;;20.40;64.60;;;;;;7778198;28;20516;-57
2022/01/14 04:22:17;;;;;;;9.57;6.25;;;20.40;64.50;;;;;;7778370;28;20203;-57
2022/01/14 04:26:03;;;;;;;8.45;5.95;;;20.40;64.40;;;;;;7778173;28;20190;-55
2022/01/14 04:29:48;;;;;;;9.43;5.95;;;20.40;64.40;;;;;;7777842;28;20226;-57
2022/01/14 04:33:34;;;;;;;9.45;6.15;;;20.40;64.50;;;;;;7778055;28;20654;-56
2022/01/14 04:37:22;;;;;;;10.80;6.20;;;20.40;64.50;;;;;;7777831;28;20178;-56
2022/01/14 04:41:09;;;;;;;10.38;6.55;;;20.40;64.60;;;;;;7777447;28;20253;-55
2022/01/14 04:44:56;;;;;;;9.52;6.07;;;20.40;65.40;;;;;;7777709;28;20167;-57
2022/01/14 04:48:41;;;;;;;8.05;5.75;;;20.40;64.50;;;;;;7777421;28;20317;-57
2022/01/14 04:52:28;;;;;;;8.70;6.05;;;20.40;64.70;;;;;;7777349;28;20179;-57
2022/01/14 04:56:13;;;;;;;8.88;5.50;;;20.40;64.50;;;;;;7777401;28;20171;-56
2022/01/14 04:59:59;;;;;;;10.20;6.15;;;20.40;64.70;;;;;;7776567;28;20214;-57
2022/01/14 05:03:45;;;;;;;8.77;5.28;;;20.40;64.70;;;;;;7777124;28;20618;-57
2022/01/14 05:07:30;;;;;;;8.07;5.75;;;20.40;64.70;;;;;;7776753;28;20229;-57
2022/01/14 05:15:05;;;;;;;8.10;5.38;;;20.30;64.70;;;;;;7777275;28;20198;-56
2022/01/14 05:18:50;;;;;;;6.50;5.35;;;20.40;64.80;;;;;;7776589;28;20191;-55
2022/01/14 05:22:36;;;;;;;8.30;5.82;;;20.40;64.80;;;;;;7776855;28;20237;-59
2022/01/14 05:26:22;;;;;;;7.47;5.40;;;20.30;64.80;;;;;;7776697;28;20183;-58
2022/01/14 05:30:09;;;;;;;7.32;5.25;;;20.40;64.90;;;;;;7776199;28;20211;-58
2022/01/14 05:33:55;;;;;;;7.20;5.28;;;20.30;64.80;;;;;;7773700;28;20604;-59
2022/01/14 05:37:41;;;;;;;9.93;5.57;;;20.30;65.00;;;;;;7775292;28;20167;-58
2022/01/14 05:41:26;;;;;;;9.23;4.82;;;20.30;64.70;;;;;;7775560;28;20684;-56
2022/01/14 05:45:14;;;;;;;8.90;5.72;;;20.30;64.80;;;;;;7775195;28;20201;-59
2022/01/14 05:49:00;;;;;;;37.88;7.68;;;20.30;64.40;;;;;;7768393;28;20430;-59
2022/01/14 05:52:45;;;;;;;41.63;22.60;;;20.20;65.40;;;;;;7774622;28;20179;-59
2022/01/14 05:56:31;;;;;;;29.30;13.52;;;20.20;64.50;;;;;;7775103;28;20185;-58
2022/01/14 06:00:20;;;;;;;28.10;11.57;;;20.20;62.90;;;;;;7775010;28;20203;-59
2022/01/14 06:04:05;;;;;;;22.63;10.02;;;20.20;63.40;;;;;;7774732;28;20241;-60
2022/01/14 06:07:52;;;;;;;32.28;13.27;;;20.10;63.80;;;;;;7775123;28;20223;-57
2022/01/14 06:11:37;;;;;;;25.90;10.93;;;20.10;60.10;;;;;;7779530;28;20221;-57
2022/01/14 06:15:23;;;;;;;21.88;8.27;;;19.90;61.60;;;;;;7780959;28;20258;-56
2022/01/14 06:19:08;;;;;;;14.40;8.70;;;19.90;62.70;;;;;;7780876;28;20215;-57
2022/01/14 06:22:54;;;;;;;16.42;8.00;;;20.10;63.70;;;;;;7781078;28;20210;-58
2022/01/14 06:26:39;;;;;;;22.80;8.15;;;20.20;64.20;;;;;;7780747;28;20187;-57
2022/01/14 06:30:25;;;;;;;17.77;7.57;;;20.40;65.00;;;;;;7780770;28;20636;-60
2022/01/14 06:34:11;;;;;;;16.65;7.20;;;20.50;65.40;;;;;;7780665;28;20185;-56
2022/01/14 06:37:58;;;;;;;15.98;7.28;;;20.60;65.60;;;;;;7779960;28;20750;-57
2022/01/14 06:41:44;;;;;;;17.70;6.95;;;20.70;65.50;;;;;;7780215;28;20573;-58
2022/01/14 06:45:31;;;;;;;11.05;6.13;;;20.70;64.80;;;;;;7780057;28;20240;-56
2022/01/14 06:49:17;;;;;;;19.40;7.10;;;20.80;64.70;;;;;;7779776;28;20226;-58
2022/01/14 06:53:03;;;;;;;24.02;10.43;;;20.80;64.60;;;;;;7779230;28;20211;-58
2022/01/14 06:56:49;;;;;;;18.73;9.07;;;20.80;62.60;;;;;;7779656;28;20218;-56
2022/01/14 07:00:35;;;;;;;22.42;9.30;;;20.50;62.20;;;;;;7779502;28;20195;-59
2022/01/14 07:04:20;;;;;;;22.27;7.55;;;20.50;63.70;;;;;;7778993;28;20230;-57
2022/01/14 07:08:06;;;;;;;14.68;6.25;;;20.60;64.70;;;;;;7778934;28;20221;-56
2022/01/14 07:11:57;;;;;;;13.43;5.90;;;20.70;65.40;;;;;;7779345;28;20778;-57
2022/01/14 07:15:43;;;;;;;12.50;5.90;;;20.80;65.40;;;;;;7778989;28;20862;-58
2022/01/14 07:19:28;;;;;;;15.48;5.63;;;21.10;65.70;;;;;;7778838;28;20640;-57
2022/01/14 07:23:14;;;;;;;11.05;5.15;;;21.20;65.70;;;;;;7778732;28;20183;-56
2022/01/14 07:26:59;;;;;;;11.75;5.43;;;21.40;65.70;;;;;;7778883;28;20932;-58
2022/01/14 07:30:45;;;;;;;11.88;5.00;;;21.60;65.60;;;;;;7778371;28;20203;-58
2022/01/14 07:34:31;;;;;;;10.93;4.72;;;21.80;65.70;;;;;;7774488;28;20199;-56
2022/01/14 07:38:16;;;;;;;6.40;4.30;;;22.10;65.60;;;;;;7778507;28;20595;-58
2022/01/14 07:42:02;;;;;;;8.45;4.72;;;22.30;65.50;;;;;;7778056;28;20227;-57
2022/01/14 07:45:48;;;;;;;14.02;4.38;;;22.50;65.40;;;;;;7747953;28;20220;-57
2022/01/14 07:49:34;;;;;;;10.25;4.20;;;22.70;65.30;;;;;;7773907;28;20215;-59
2022/01/14 07:53:19;;;;;;;5.28;4.05;;;23.00;65.30;;;;;;7768894;28;20191;-59
2022/01/14 07:57:07;;;;;;;17.45;4.25;;;23.20;65.10;;;;;;7747949;28;20713;-59
2022/01/14 08:00:53;;;;;;;7.72;3.90;;;23.40;65.00;;;;;;7747569;28;20202;-57
2022/01/14 08:04:40;;;;;;;6.53;3.40;;;23.60;64.90;;;;;;7759814;28;20199;-59
2022/01/14 08:08:25;;;;;;;9.45;3.78;;;23.70;64.90;;;;;;7777499;28;20707;-57
2022/01/14 08:12:14;;;;;;;10.60;3.90;;;23.80;64.90;;;;;;7777706;28;20834;-58
2022/01/14 08:16:00;;;;;;;9.10;3.35;;;23.90;64.90;;;;;;7777345;28;20186;-57
2022/01/14 08:19:46;;;;;;;5.95;2.90;;;24.00;65.00;;;;;;7776957;28;20211;-57
2022/01/14 08:23:31;;;;;;;6.43;3.47;;;24.10;65.10;;;;;;7777141;28;20171;-56
2022/01/14 08:27:17;;;;;;;10.80;4.28;;;24.10;65.20;;;;;;7776986;28;20207;-56
2022/01/14 08:31:03;;;;;;;5.75;3.30;;;24.10;65.20;;;;;;7771809;28;20319;-57
2022/01/14 08:34:50;;;;;;;5.55;3.13;;;24.20;65.30;;;;;;7760070;28;20597;-56
2022/01/14 08:38:37;;;;;;;11.52;3.28;;;24.20;65.40;;;;;;7776256;28;20561;-58
2022/01/14 08:42:22;;;;;;;6.85;3.60;;;24.20;65.40;;;;;;7776737;28;20258;-56
2022/01/14 08:46:08;;;;;;;6.40;3.50;;;24.20;65.50;;;;;;7776293;28;20223;-56
2022/01/14 08:49:53;;;;;;;4.38;2.60;;;24.20;65.50;;;;;;7776209;28;20239;-56
2022/01/14 08:53:39;;;;;;;17.70;4.25;;;24.10;65.50;;;;;;7774156;28;20754;-60
2022/01/14 08:57:24;;;;;;;13.18;3.40;;;24.00;61.70;;;;;;7776300;28;20187;-57
2022/01/14 09:01:10;;;;;;;17.65;4.00;;;23.90;64.80;;;;;;7776199;28;20337;-58
2022/01/14 09:04:55;;;;;;;10.95;3.30;;;23.80;65.30;;;;;;7776082;28;20187;-57
2022/01/14 09:08:41;;;;;;;4.13;2.72;;;23.80;65.60;;;;;;7790955;28;20203;-55
2022/01/14 09:12:26;;;;;;;17.55;3.17;;;23.80;65.90;;;;;;7776288;28;20210;-57
2022/01/14 09:16:12;;;;;;;7.22;2.92;;;23.80;65.90;;;;;;7775747;28;20195;-57
2022/01/14 09:19:58;;;;;;;9.23;2.60;;;23.70;66.10;;;;;;7773727;28;20575;-56
2022/01/14 09:23:51;;;;;;;11.43;3.13;;;23.60;66.40;;;;;;7775509;28;20237;-54
2022/01/14 09:27:37;;;;;;;14.33;2.43;;;23.60;66.60;;;;;;7775834;28;20296;-56
2022/01/14 09:31:22;;;;;;;12.18;2.60;;;23.60;66.90;;;;;;7775833;28;20191;-55
2022/01/14 09:35:08;;;;;;;8.82;2.30;;;23.60;67.20;;;;;;7775397;28;20187;-57
2022/01/14 09:38:53;;;;;;;10.07;2.50;;;23.60;67.30;;;;;;7775510;28;20179;-56
2022/01/14 09:42:39;;;;;;;9.25;2.50;;;23.60;67.50;;;;;;7776103;28;20230;-56
2022/01/14 09:46:24;;;;;;;14.60;2.85;;;23.60;67.50;;;;;;7778989;28;20214;-56
2022/01/14 09:50:10;;;;;;;11.60;2.40;;;23.70;67.70;;;;;;7781581;28;20233;-55
2022/01/14 09:53:55;;;;;;;10.43;3.35;;;23.80;67.80;;;;;;7780784;28;20187;-57
2022/01/14 09:57:41;;;;;;;9.90;3.75;;;23.80;67.80;;;;;;7781200;28;20230;-59
2022/01/14 10:01:27;;;;;;;20.58;3.05;;;23.90;67.60;;;;;;7781003;28;20207;-56
2022/01/14 10:05:34;;;;;;;11.50;3.35;;;23.90;67.70;;;;;;7761639;28;20188;-58
2022/01/14 10:09:24;;;;;;;9.85;2.75;;;24.00;67.70;;;;;;7773009;28;20297;-55
2022/01/14 10:13:15;;;;;;;7.18;2.40;;;24.10;67.90;;;;;;7781229;28;20647;-57
2022/01/14 10:17:03;;;;;;;4.25;2.42;;;24.10;68.80;;;;;;7780845;28;20199;-56
2022/01/14 10:20:50;;;;;;;8.90;2.50;;;24.20;68.10;;;;;;7780549;28;20237;-56
2022/01/14 10:24:35;;;;;;;5.45;2.60;;;24.20;68.20;;;;;;7779825;28;20669;-57
2022/01/14 10:28:21;;;;;;;6.53;2.78;;;24.20;68.40;;;;;;7779970;28;20587;-56
2022/01/14 10:32:08;;;;;;;4.63;3.08;;;24.20;68.20;;;;;;7780438;28;20195;-57
2022/01/14 10:35:54;;;;;;;5.50;2.72;;;24.30;68.30;;;;;;7779780;28;20517;-56
2022/01/14 10:39:46;;;;;;;9.00;3.08;;;24.20;68.20;;;;;;7780166;28;20298;-56
2022/01/14 10:43:33;;;;;;;8.38;2.90;;;24.20;68.00;;;;;;7780167;28;20582;-56
2022/01/14 10:47:22;;;;;;;4.03;2.67;;;24.20;68.20;;;;;;7779927;28;20197;-57
2022/01/14 10:51:16;;;;;;;7.85;2.72;;;24.10;68.30;;;;;;7779477;28;20239;-58
2022/01/14 10:55:02;;;;;;;5.40;2.47;;;24.20;68.40;;;;;;7779233;28;20168;-57
2022/01/14 10:58:50;;;;;;;5.97;2.65;;;24.20;68.70;;;;;;7779566;28;20310;-57
2022/01/14 11:02:39;;;;;;;6.47;2.88;;;24.10;68.70;;;;;;7779606;28;20191;-57
2022/01/14 11:06:38;;;;;;;12.40;3.03;;;24.00;67.50;;;;;;7774814;28;20193;-58
2022/01/14 11:10:26;;;;;;;8.75;3.28;;;24.00;68.70;;;;;;7779099;28;20226;-55
2022/01/14 11:14:14;;;;;;;6.00;2.90;;;24.00;68.70;;;;;;7779404;28;20207;-57
2022/01/14 11:18:04;;;;;;;12.70;3.60;;;24.10;68.80;;;;;;7779541;28;20179;-57
2022/01/14 11:25:59;;;;;;;7.20;3.33;;;24.30;69.20;;;;;;7778653;28;20179;-58
2022/01/14 11:29:51;;;;;;;16.38;3.15;;;24.40;69.50;;;;;;7776465;28;20783;-57
2022/01/14 11:33:40;;;;;;;17.90;3.58;;;24.50;69.50;;;;;;7778050;28;20175;-57
2022/01/14 11:37:34;;;;;;;11.57;4.00;;;24.60;69.50;;;;;;7778318;28;20226;-57
2022/01/14 11:41:41;;;;;;;11.23;3.85;;;24.70;70.80;;;;;;7778356;28;20199;-59
2022/01/14 11:45:45;;;;;;;11.30;3.60;;;24.80;71.00;;;;;;7777934;28;20191;-59
2022/01/14 11:49:34;;;;;;;17.70;3.80;;;24.80;70.70;;;;;;7777805;28;20214;-59
2022/01/14 11:53:39;;;;;;;8.10;3.20;;;24.80;70.40;;;;;;7778000;28;20180;-58
2022/01/14 11:57:48;;;;;;;10.07;3.65;;;24.80;70.20;;;;;;7777879;28;20306;-58
2022/01/14 12:01:34;;;;;;;9.82;3.58;;;24.70;70.00;;;;;;7777697;28;20245;-56
2022/01/14 12:05:24;;;;;;;11.05;3.35;;;24.60;69.90;;;;;;7776861;28;20183;-58
2022/01/14 12:09:10;;;;;;;11.98;7.80;;;24.50;69.50;;;;;;7776281;28;20302;-58
2022/01/14 12:13:49;;;;;;;10.40;5.03;;;24.10;60.80;;;;;;7777572;28;20179;-58
2022/01/14 12:17:40;;;;;;;17.33;4.70;;;23.80;68.40;;;;;;7777033;28;20206;-57
2022/01/14 12:21:41;;;;;;;11.65;4.47;;;23.90;68.80;;;;;;7777342;28;20203;-57
2022/01/14 12:25:42;;;;;;;9.23;3.53;;;23.90;69.10;;;;;;7776889;28;20210;-56
2022/01/14 12:29:35;;;;;;;7.05;3.40;;;24.00;69.10;;;;;;7776606;28;20803;-57
2022/01/14 12:33:45;;;;;;;12.40;3.60;;;24.00;69.00;;;;;;7777057;28;20190;-56
2022/01/14 12:37:32;;;;;;;8.57;3.50;;;24.10;69.00;;;;;;7766611;28;20563;-55
2022/01/14 12:41:24;;;;;;;13.35;3.80;;;24.10;68.80;;;;;;7746789;28;20195;-59
2022/01/14 12:45:24;;;;;;;12.00;3.83;;;24.10;69.10;;;;;;7747422;28;20199;-57
2022/01/14 12:49:14;;;;;;;5.88;3.50;;;24.00;68.80;;;;;;7747236;28;20247;-58
2022/01/14 12:53:00;;;;;;;11.57;4.05;;;24.10;68.80;;;;;;7747303;28;20180;-57
2022/01/14 12:56:52;;;;;;;11.68;3.33;;;24.00;68.70;;;;;;7746907;28;20180;-57
2022/01/14 13:00:39;;;;;;;7.10;3.20;;;24.00;68.70;;;;;;7746314;28;20580;-58
2022/01/14 13:04:26;;;;;;;5.65;3.05;;;24.00;68.60;;;;;;7746747;28;20288;-55
2022/01/14 13:08:11;;;;;;;9.98;3.22;;;24.00;68.70;;;;;;7746417;28;20241;-55
2022/01/14 13:12:02;;;;;;;7.97;3.42;;;23.90;68.60;;;;;;7746433;28;20690;-57
2022/01/14 13:15:48;;;;;;;6.50;3.10;;;23.90;68.70;;;;;;7746672;28;20188;-58
2022/01/14 13:19:35;;;;;;;10.00;3.35;;;23.90;68.70;;;;;;7745680;28;20207;-57
2022/01/14 13:23:21;;;;;;;8.55;4.00;;;23.80;68.70;;;;;;7743990;28;20666;-58
2022/01/14 13:27:12;;;;;;;13.55;3.85;;;23.70;68.50;;;;;;7746298;28;20227;-58
2022/01/14 13:30:58;;;;;;;12.20;4.10;;;23.70;68.50;;;;;;7745601;28;20242;-56
2022/01/14 13:34:55;;;;;;;10.40;3.92;;;23.70;68.50;;;;;;7746018;28;20180;-58
2022/01/14 13:38:40;;;;;;;10.93;4.03;;;23.60;68.40;;;;;;7745764;28;20190;-59
2022/01/14 13:42:26;;;;;;;17.00;5.68;;;23.50;69.40;;;;;;7745550;28;20701;-57
2022/01/14 13:46:18;;;;;;;27.08;8.43;;;23.50;68.50;;;;;;7794053;23;20338;-58
2022/01/14 13:50:15;;;;;;;19.15;7.07;;;23.50;68.40;;;;;;7804839;28;20213;-56
2022/01/14 13:54:03;;;;;;;22.25;6.47;;;23.50;68.30;;;;;;7801962;28;20213;-56
2022/01/14 13:57:49;;;;;;;21.45;6.82;;;23.40;68.20;;;;;;7805787;28;20277;-56
2022/01/14 14:01:35;;;;;;;20.30;6.00;;;23.40;68.20;;;;;;7806451;28;20631;-56
2022/01/14 14:05:35;;;;;;;24.70;7.15;;;23.30;68.10;;;;;;7806751;28;20182;-60
2022/01/14 14:09:33;;;;;;;23.25;7.90;;;23.30;68.10;;;;;;7805759;28;20691;-57
2022/01/14 14:15:38;;;;;;;28.95;7.80;;;23.30;68.10;;;;;;7806742;28;20194;-56
2022/01/14 14:17:32;;;;;;;23.20;7.57;;;23.20;67.90;;;;;;7805699;28;20302;-55
2022/01/14 14:21:17;;;;;;;24.52;8.48;;;23.20;67.80;;;;;;7806440;28;20183;-58
2022/01/14 14:25:24;;;;;;;25.55;7.97;;;23.20;67.80;;;;;;7806631;28;20567;-57
2022/01/14 14:29:25;;;;;;;30.85;7.80;;;23.20;67.80;;;;;;7805509;28;20206;-58
2022/01/14 14:33:11;;;;;;;24.50;8.57;;;23.20;67.70;;;;;;7811036;28;20174;-55
2022/01/14 14:36:56;;;;;;;29.02;8.90;;;23.20;67.50;;;;;;7811910;28;20690;-55
2022/01/14 14:40:43;;;;;;;29.60;8.85;;;23.10;67.40;;;;;;7811128;28;20170;-58
2022/01/14 14:44:28;;;;;;;22.30;7.80;;;23.10;67.00;;;;;;7811787;28;20182;-57
2022/01/14 14:48:15;;;;;;;30.23;9.95;;;23.10;67.30;;;;;;7810724;28;20313;-57
2022/01/14 14:52:02;;;;;;;21.13;7.43;;;23.00;66.90;;;;;;7811715;28;20229;-58
2022/01/14 14:55:47;;;;;;;24.40;8.55;;;23.00;67.00;;;;;;7811671;28;20187;-57
2022/01/14 14:59:33;;;;;;;25.02;7.70;;;23.00;66.70;;;;;;7810994;28;20194;-58
2022/01/14 15:03:18;;;;;;;19.27;8.00;;;23.00;67.10;;;;;;7811351;28;20261;-57
2022/01/14 15:07:04;;;;;;;26.48;8.80;;;22.90;67.60;;;;;;7811343;28;20206;-57
2022/01/14 15:10:50;;;;;;;22.13;7.80;;;22.90;66.80;;;;;;7810386;28;20702;-55
2022/01/14 15:14:36;;;;;;;23.55;9.00;;;22.90;66.40;;;;;;7811114;28;20183;-58
2022/01/14 15:18:22;;;;;;;19.85;8.73;;;22.90;65.70;;;;;;7810037;28;20206;-55
2022/01/14 15:22:07;;;;;;;25.60;8.70;;;22.90;65.50;;;;;;7810701;28;20183;-56
2022/01/14 15:25:53;;;;;;;18.90;8.52;;;22.90;65.60;;;;;;7810438;28;20174;-58
2022/01/14 15:29:38;;;;;;;19.95;7.95;;;22.90;64.80;;;;;;7809761;28;20218;-54
2022/01/14 15:33:25;;;;;;;24.20;8.23;;;22.80;64.70;;;;;;7810311;28;20260;-55
2022/01/14 15:37:11;;;;;;;18.08;8.68;;;22.90;64.40;;;;;;7810232;28;20190;-56
2022/01/14 15:40:58;;;;;;;23.13;8.30;;;22.80;63.60;;;;;;7809442;28;20599;-58
2022/01/14 15:44:44;;;;;;;23.88;8.77;;;22.80;63.40;;;;;;7809971;28;20597;-56
2022/01/14 15:48:30;;;;;;;18.73;7.93;;;22.80;63.20;;;;;;7809035;28;20210;-55
2022/01/14 15:52:16;;;;;;;22.83;8.80;;;22.70;63.20;;;;;;7809789;28;20258;-57
2022/01/14 15:56:01;;;;;;;21.08;8.20;;;22.70;63.00;;;;;;7809623;28;20190;-57
2022/01/14 15:59:46;;;;;;;17.20;7.55;;;22.70;63.00;;;;;;7808950;28;20186;-57
2022/01/14 16:03:34;;;;;;;17.42;6.47;;;22.70;63.00;;;;;;7809488;28;20178;-55
2022/01/14 16:07:21;;;;;;;20.95;8.38;;;22.70;62.90;;;;;;7809494;28;20305;-57
2022/01/14 16:11:08;;;;;;;21.40;7.55;;;22.70;62.90;;;;;;7808341;28;20206;-58
2022/01/14 16:14:53;;;;;;;30.23;7.78;;;22.70;62.80;;;;;;7809071;28;20171;-58
2022/01/14 16:18:39;;;;;;;17.35;7.05;;;22.70;62.70;;;;;;7808224;28;20199;-57
2022/01/14 16:22:25;;;;;;;17.17;6.07;;;22.70;62.70;;;;;;7808951;28;20205;-56
2022/01/14 16:26:10;;;;;;;17.70;7.70;;;22.70;62.60;;;;;;7808749;28;20726;-56
2022/01/14 16:29:57;;;;;;;18.90;7.30;;;22.70;62.60;;;;;;7807913;28;20610;-57
2022/01/14 16:33:42;;;;;;;12.82;7.20;;;22.70;62.50;;;;;;7808546;28;20201;-58
2022/01/14 16:37:28;;;;;;;15.07;7.07;;;22.70;62.40;;;;;;7807847;28;20190;-58
2022/01/14 16:41:14;;;;;;;14.80;6.55;;;22.70;62.40;;;;;;7808351;28;20550;-56
2022/01/14 16:44:59;;;;;;;15.02;6.47;;;22.70;62.30;;;;;;7808438;28;20210;-56
2022/01/14 16:48:45;;;;;;;10.30;6.32;;;22.70;62.30;;;;;;7807173;28;20586;-57
2022/01/14 16:52:30;;;;;;;10.68;6.15;;;22.70;62.30;;;;;;7808096;28;20171;-56
2022/01/14 16:56:16;;;;;;;9.75;6.30;;;22.60;62.10;;;;;;7807571;28;20198;-57
2022/01/14 17:00:04;;;;;;;11.40;6.47;;;22.70;62.10;;;;;;7807239;28;20265;-56
2022/01/14 17:03:51;;;;;;;11.20;6.03;;;22.70;62.20;;;;;;7808121;28;20178;-56
2022/01/14 17:07:38;;;;;;;10.75;6.25;;;22.70;62.00;;;;;;7807014;28;20277;-56
2022/01/14 17:11:26;;;;;;;9.93;5.80;;;22.60;61.90;;;;;;7807612;28;20211;-57
2022/01/14 17:15:12;;;;;;;16.10;6.35;;;22.70;62.00;;;;;;7807672;28;20193;-57
2022/01/14 17:18:57;;;;;;;14.48;5.63;;;22.70;62.00;;;;;;7806887;28;20286;-56
2022/01/14 17:22:43;;;;;;;12.43;5.53;;;22.70;62.40;;;;;;7807626;28;20183;-56
2022/01/14 17:26:29;;;;;;;11.13;5.60;;;22.70;61.90;;;;;;7807602;28;20198;-58
2022/01/14 17:30:15;;;;;;;10.25;5.32;;;22.70;61.90;;;;;;7806542;28;20230;-59
2022/01/14 17:34:00;;;;;;;9.65;5.68;;;22.70;61.90;;;;;;7807191;28;20171;-58
2022/01/14 17:37:46;;;;;;;8.35;5.32;;;22.70;61.80;;;;;;7806306;28;20203;-58
2022/01/14 17:41:32;;;;;;;7.70;5.15;;;22.70;61.90;;;;;;7806754;28;20186;-58
2022/01/14 17:45:19;;;;;;;18.92;5.50;;;22.70;61.90;;;;;;7807190;28;20178;-58
2022/01/14 17:49:04;;;;;;;6.97;4.80;;;22.70;61.80;;;;;;7805968;28;20297;-57
2022/01/14 17:52:50;;;;;;;6.57;4.90;;;22.70;61.80;;;;;;7806941;28;20651;-55
2022/01/14 17:56:35;;;;;;;6.82;4.82;;;22.70;61.80;;;;;;7806838;28;20190;-57
2022/01/14 18:00:21;;;;;;;7.95;4.60;;;22.70;61.80;;;;;;7806112;28;20183;-57
2022/01/14 18:04:07;;;;;;;6.95;4.22;;;22.70;61.90;;;;;;7806691;28;20519;-57
2022/01/14 18:07:52;;;;;;;7.10;4.25;;;22.70;61.80;;;;;;7810283;28;20203;-57
2022/01/14 18:11:41;;;;;;;6.97;4.60;;;22.70;61.70;;;;;;7812745;28;20174;-56
2022/01/14 18:15:27;;;;;;;9.13;4.95;;;22.70;61.90;;;;;;7812601;28;20518;-59
2022/01/14 18:19:13;;;;;;;6.75;4.70;;;22.60;61.80;;;;;;7811864;28;20195;-57
2022/01/14 18:22:58;;;;;;;7.00;4.95;;;22.70;61.90;;;;;;7812591;28;20178;-58
2022/01/14 18:26:44;;;;;;;8.68;5.03;;;22.60;61.70;;;;;;7812276;28;20289;-56
2022/01/14 18:30:29;;;;;;;9.43;5.20;;;22.60;61.70;;;;;;7811478;28;20671;-57
2022/01/14 18:34:16;;;;;;;6.93;5.20;;;22.60;61.60;;;;;;7812084;28;20225;-57
2022/01/14 18:38:01;;;;;;;9.25;5.30;;;22.70;61.60;;;;;;7811095;28;20206;-57
2022/01/14 18:41:47;;;;;;;6.97;4.93;;;22.60;61.50;;;;;;7811833;28;20171;-57
2022/01/14 18:45:34;;;;;;;8.63;5.03;;;22.60;61.50;;;;;;7811862;28;20175;-57
2022/01/14 18:49:19;;;;;;;7.38;4.68;;;22.60;61.60;;;;;;7810758;28;20703;-57
2022/01/14 18:53:05;;;;;;;9.10;5.85;;;22.60;61.60;;;;;;7811756;28;20606;-55
2022/01/14 18:56:51;;;;;;;8.27;5.43;;;22.60;61.60;;;;;;7811613;28;20199;-58
2022/01/14 19:00:36;;;;;;;8.55;5.60;;;22.50;61.50;;;;;;7810843;28;20178;-58
2022/01/14 19:04:21;;;;;;;9.65;5.53;;;22.50;61.60;;;;;;7811325;28;20190;-57
2022/01/14 19:08:07;;;;;;;9.18;5.60;;;22.50;61.80;;;;;;7810362;28;20210;-55
2022/01/14 19:11:55;;;;;;;8.52;5.65;;;22.50;61.80;;;;;;7811060;28;20185;-58
2022/01/14 19:15:40;;;;;;;12.43;5.68;;;22.40;61.70;;;;;;7810876;28;20175;-56
2022/01/14 19:19:26;;;;;;;14.07;5.85;;;22.40;61.20;;;;;;7809607;28;20233;-56
2022/01/14 19:23:11;;;;;;;25.75;5.53;;;22.40;60.50;;;;;;7811213;28;20183;-59
2022/01/14 19:26:57;;;;;;;24.10;6.00;;;22.40;60.00;;;;;;7810556;28;20202;-56
2022/01/14 19:30:43;;;;;;;21.38;5.47;;;22.30;60.20;;;;;;7809811;28;20264;-56
2022/01/14 19:34:28;;;;;;;28.88;5.55;;;22.30;61.10;;;;;;7810387;28;20174;-57
2022/01/14 19:38:15;;;;;;;19.27;5.63;;;22.20;61.40;;;;;;7809519;28;20667;-59
2022/01/14 19:42:01;;;;;;;25.80;6.40;;;22.20;61.50;;;;;;7810178;28;20171;-57
2022/01/14 19:45:47;;;;;;;28.98;5.90;;;22.10;61.60;;;;;;7810110;28;20225;-56
2022/01/14 19:49:33;;;;;;;21.65;5.60;;;22.10;61.60;;;;;;7820207;23;20237;-56
2022/01/14 19:53:19;;;;;;;15.07;4.93;;;22.10;61.10;;;;;;7806186;28;20214;-55
2022/01/14 19:57:04;;;;;;;15.23;4.95;;;22.10;61.50;;;;;;7809583;28;20297;-56
2022/01/14 20:00:50;;;;;;;35.13;6.13;;;22.00;61.60;;;;;;7808843;28;20181;-57
2022/01/14 20:04:38;;;;;;;22.33;5.53;;;22.10;62.50;;;;;;7809229;28;20197;-58